sensor_id;sensor_type;location;lat;lon;timestamp;P1;durP1;ratioP1;P2;durP2;ratioP2
75689;SDS011;64303;53.118;9.044;2023-08-07T00:01:11;4.93;;;3.65;;
75689;SDS011;64303;53.118;9.044;2023-08-07T00:03:38;6.95;;;3.50;;
75689;SDS011;64303;53.118;9.044;2023-08-07T00:06:04;4.53;;;2.25;;
75689;SDS011;64303;53.118;9.044;2023-08-07T00:08:32;4.32;;;3.60;;
75689;SDS011;64303;53.118;9.044;2023-08-07T00:11:05;4.85;;;3.00;;
75689;SDS011;64303;53.118;9.044;2023-08-07T00:13:32;4.20;;;3.33;;
75689;SDS011;64303;53.118;9.044;2023-08-07T00:15:58;3.38;;;2.55;;
75689;SDS011;64303;53.118;9.044;2023-08-07T00:18:25;4.25;;;3.50;;
75689;SDS011;64303;53.118;9.044;2023-08-07T00:20:52;4.72;;;3.38;;
75689;SDS011;64303;53.118;9.044;2023-08-07T00:23:19;6.00;;;5.43;;
75689;SDS011;64303;53.118;9.044;2023-08-07T00:25:46;6.82;;;3.90;;
75689;SDS011;64303;53.118;9.044;2023-08-07T00:28:13;5.53;;;3.60;;
75689;SDS011;64303;53.118;9.044;2023-08-07T00:30:40;6.65;;;5.97;;
75689;SDS011;64303;53.118;9.044;2023-08-07T00:33:06;5.75;;;5.15;;
75689;SDS011;64303;53.118;9.044;2023-08-07T00:35:33;5.53;;;3.45;;
75689;SDS011;64303;53.118;9.044;2023-08-07T00:38:00;6.53;;;6.03;;
75689;SDS011;64303;53.118;9.044;2023-08-07T00:40:27;6.65;;;5.95;;
75689;SDS011;64303;53.118;9.044;2023-08-07T00:42:55;6.18;;;5.32;;
75689;SDS011;64303;53.118;9.044;2023-08-07T00:47:48;5.82;;;5.32;;
75689;SDS011;64303;53.118;9.044;2023-08-07T00:50:15;7.60;;;6.43;;
75689;SDS011;64303;53.118;9.044;2023-08-07T00:52:42;7.10;;;4.28;;
75689;SDS011;64303;53.118;9.044;2023-08-07T00:55:08;6.25;;;4.35;;
75689;SDS011;64303;53.118;9.044;2023-08-07T00:57:35;7.68;;;6.97;;
75689;SDS011;64303;53.118;9.044;2023-08-07T01:00:04;9.80;;;3.97;;
75689;SDS011;64303;53.118;9.044;2023-08-07T01:02:33;8.65;;;5.72;;
75689;SDS011;64303;53.118;9.044;2023-08-07T01:04:59;9.60;;;4.75;;
75689;SDS011;64303;53.118;9.044;2023-08-07T01:07:26;8.63;;;7.72;;
75689;SDS011;64303;53.118;9.044;2023-08-07T01:09:53;11.63;;;6.18;;
75689;SDS011;64303;53.118;9.044;2023-08-07T01:12:22;8.30;;;7.50;;
75689;SDS011;64303;53.118;9.044;2023-08-07T01:14:52;7.13;;;6.28;;
75689;SDS011;64303;53.118;9.044;2023-08-07T01:17:23;9.60;;;6.30;;
75689;SDS011;64303;53.118;9.044;2023-08-07T01:19:51;6.80;;;5.13;;
75689;SDS011;64303;53.118;9.044;2023-08-07T01:22:19;8.10;;;5.20;;
75689;SDS011;64303;53.118;9.044;2023-08-07T01:24:47;8.70;;;5.93;;
75689;SDS011;64303;53.118;9.044;2023-08-07T01:27:22;7.60;;;4.07;;
75689;SDS011;64303;53.118;9.044;2023-08-07T01:29:54;12.98;;;5.72;;
75689;SDS011;64303;53.118;9.044;2023-08-07T01:32:26;12.52;;;5.93;;
75689;SDS011;64303;53.118;9.044;2023-08-07T01:34:59;8.80;;;7.35;;
75689;SDS011;64303;53.118;9.044;2023-08-07T01:37:29;11.55;;;5.50;;
75689;SDS011;64303;53.118;9.044;2023-08-07T01:39:57;8.25;;;4.38;;
75689;SDS011;64303;53.118;9.044;2023-08-07T01:42:25;9.27;;;7.70;;
75689;SDS011;64303;53.118;9.044;2023-08-07T01:44:52;10.02;;;4.00;;
75689;SDS011;64303;53.118;9.044;2023-08-07T01:47:19;7.50;;;5.30;;
75689;SDS011;64303;53.118;9.044;2023-08-07T01:49:46;9.43;;;4.55;;
75689;SDS011;64303;53.118;9.044;2023-08-07T01:52:12;7.15;;;4.22;;
75689;SDS011;64303;53.118;9.044;2023-08-07T01:54:41;8.60;;;7.10;;
75689;SDS011;64303;53.118;9.044;2023-08-07T01:57:06;7.40;;;6.63;;
75689;SDS011;64303;53.118;9.044;2023-08-07T01:59:33;17.35;;;5.50;;
75689;SDS011;64303;53.118;9.044;2023-08-07T02:02:00;9.68;;;6.00;;
75689;SDS011;64303;53.118;9.044;2023-08-07T02:04:26;6.78;;;6.18;;
75689;SDS011;64303;53.118;9.044;2023-08-07T02:06:53;3.08;;;2.42;;
75689;SDS011;64303;53.118;9.044;2023-08-07T02:09:22;4.35;;;2.35;;
75689;SDS011;64303;53.118;9.044;2023-08-07T02:11:50;6.13;;;5.53;;
75689;SDS011;64303;53.118;9.044;2023-08-07T02:14:17;9.30;;;4.13;;
75689;SDS011;64303;53.118;9.044;2023-08-07T02:16:44;6.80;;;6.15;;
75689;SDS011;64303;53.118;9.044;2023-08-07T02:19:12;8.40;;;7.05;;
75689;SDS011;64303;53.118;9.044;2023-08-07T02:21:38;12.18;;;7.68;;
75689;SDS011;64303;53.118;9.044;2023-08-07T02:24:05;8.63;;;7.80;;
75689;SDS011;64303;53.118;9.044;2023-08-07T02:26:32;11.13;;;8.77;;
75689;SDS011;64303;53.118;9.044;2023-08-07T02:28:59;7.40;;;6.57;;
75689;SDS011;64303;53.118;9.044;2023-08-07T02:31:28;10.38;;;6.07;;
75689;SDS011;64303;53.118;9.044;2023-08-07T02:33:54;10.48;;;6.43;;
75689;SDS011;64303;53.118;9.044;2023-08-07T02:36:21;10.38;;;8.32;;
75689;SDS011;64303;53.118;9.044;2023-08-07T02:38:48;8.73;;;7.82;;
75689;SDS011;64303;53.118;9.044;2023-08-07T02:41:14;11.82;;;6.72;;
75689;SDS011;64303;53.118;9.044;2023-08-07T02:43:41;10.95;;;8.20;;
75689;SDS011;64303;53.118;9.044;2023-08-07T02:46:09;15.40;;;7.35;;
75689;SDS011;64303;53.118;9.044;2023-08-07T02:51:03;9.57;;;8.52;;
75689;SDS011;64303;53.118;9.044;2023-08-07T02:53:29;12.40;;;10.38;;
75689;SDS011;64303;53.118;9.044;2023-08-07T02:55:56;12.60;;;10.38;;
75689;SDS011;64303;53.118;9.044;2023-08-07T02:58:22;12.13;;;8.73;;
75689;SDS011;64303;53.118;9.044;2023-08-07T03:00:49;11.70;;;9.00;;
75689;SDS011;64303;53.118;9.044;2023-08-07T03:03:17;15.23;;;11.15;;
75689;SDS011;64303;53.118;9.044;2023-08-07T03:05:47;13.43;;;12.00;;
75689;SDS011;64303;53.118;9.044;2023-08-07T03:08:15;14.02;;;10.07;;
75689;SDS011;64303;53.118;9.044;2023-08-07T03:10:41;14.32;;;9.45;;
75689;SDS011;64303;53.118;9.044;2023-08-07T03:13:08;18.63;;;9.52;;
75689;SDS011;64303;53.118;9.044;2023-08-07T03:15:35;18.38;;;12.57;;
75689;SDS011;64303;53.118;9.044;2023-08-07T03:18:01;15.35;;;9.50;;
75689;SDS011;64303;53.118;9.044;2023-08-07T03:20:29;12.57;;;9.88;;
75689;SDS011;64303;53.118;9.044;2023-08-07T03:22:56;16.90;;;12.20;;
75689;SDS011;64303;53.118;9.044;2023-08-07T03:25:23;14.35;;;12.85;;
75689;SDS011;64303;53.118;9.044;2023-08-07T03:27:50;15.27;;;9.63;;
75689;SDS011;64303;53.118;9.044;2023-08-07T03:30:17;15.77;;;13.27;;
75689;SDS011;64303;53.118;9.044;2023-08-07T03:32:44;15.05;;;12.68;;
75689;SDS011;64303;53.118;9.044;2023-08-07T03:35:12;13.60;;;10.75;;
75689;SDS011;64303;53.118;9.044;2023-08-07T03:40:08;13.35;;;7.55;;
75689;SDS011;64303;53.118;9.044;2023-08-07T03:42:35;16.70;;;10.23;;
75689;SDS011;64303;53.118;9.044;2023-08-07T03:45:03;12.05;;;7.22;;
75689;SDS011;64303;53.118;9.044;2023-08-07T03:47:30;12.90;;;7.90;;
75689;SDS011;64303;53.118;9.044;2023-08-07T03:49:57;14.50;;;9.15;;
75689;SDS011;64303;53.118;9.044;2023-08-07T03:52:24;9.75;;;8.55;;
75689;SDS011;64303;53.118;9.044;2023-08-07T03:54:52;13.35;;;7.72;;
75689;SDS011;64303;53.118;9.044;2023-08-07T03:57:19;15.82;;;9.60;;
75689;SDS011;64303;53.118;9.044;2023-08-07T03:59:49;12.70;;;7.90;;
75689;SDS011;64303;53.118;9.044;2023-08-07T04:02:15;13.77;;;8.82;;
75689;SDS011;64303;53.118;9.044;2023-08-07T04:04:43;12.02;;;9.65;;
75689;SDS011;64303;53.118;9.044;2023-08-07T04:07:10;12.25;;;6.72;;
75689;SDS011;64303;53.118;9.044;2023-08-07T04:09:37;12.38;;;6.25;;
75689;SDS011;64303;53.118;9.044;2023-08-07T04:12:05;9.80;;;8.13;;
75689;SDS011;64303;53.118;9.044;2023-08-07T04:14:32;8.07;;;7.00;;
75689;SDS011;64303;53.118;9.044;2023-08-07T04:16:59;9.77;;;4.80;;
75689;SDS011;64303;53.118;9.044;2023-08-07T04:19:26;5.82;;;4.35;;
75689;SDS011;64303;53.118;9.044;2023-08-07T04:21:53;7.85;;;3.35;;
75689;SDS011;64303;53.118;9.044;2023-08-07T04:24:20;9.32;;;4.05;;
75689;SDS011;64303;53.118;9.044;2023-08-07T04:26:49;5.97;;;5.22;;
75689;SDS011;64303;53.118;9.044;2023-08-07T04:29:17;7.35;;;6.18;;
75689;SDS011;64303;53.118;9.044;2023-08-07T04:31:44;6.03;;;5.45;;
75689;SDS011;64303;53.118;9.044;2023-08-07T04:34:10;4.82;;;3.28;;
75689;SDS011;64303;53.118;9.044;2023-08-07T04:36:37;5.70;;;5.18;;
75689;SDS011;64303;53.118;9.044;2023-08-07T04:39:04;4.40;;;3.85;;
75689;SDS011;64303;53.118;9.044;2023-08-07T04:41:31;7.72;;;4.47;;
75689;SDS011;64303;53.118;9.044;2023-08-07T04:43:57;5.78;;;2.85;;
75689;SDS011;64303;53.118;9.044;2023-08-07T04:46:26;8.05;;;6.78;;
75689;SDS011;64303;53.118;9.044;2023-08-07T04:48:52;4.60;;;4.07;;
75689;SDS011;64303;53.118;9.044;2023-08-07T04:51:19;4.25;;;3.83;;
75689;SDS011;64303;53.118;9.044;2023-08-07T04:53:46;6.88;;;6.28;;
75689;SDS011;64303;53.118;9.044;2023-08-07T04:56:15;5.53;;;3.60;;
75689;SDS011;64303;53.118;9.044;2023-08-07T04:58:42;6.47;;;4.88;;
75689;SDS011;64303;53.118;9.044;2023-08-07T05:01:09;7.28;;;3.20;;
75689;SDS011;64303;53.118;9.044;2023-08-07T05:03:37;4.63;;;3.15;;
75689;SDS011;64303;53.118;9.044;2023-08-07T05:08:31;4.65;;;3.85;;
75689;SDS011;64303;53.118;9.044;2023-08-07T05:10:57;6.72;;;6.13;;
75689;SDS011;64303;53.118;9.044;2023-08-07T05:13:24;7.03;;;6.45;;
75689;SDS011;64303;53.118;9.044;2023-08-07T05:15:52;5.60;;;4.40;;
75689;SDS011;64303;53.118;9.044;2023-08-07T05:18:18;5.75;;;3.05;;
75689;SDS011;64303;53.118;9.044;2023-08-07T05:20:46;4.22;;;1.92;;
75689;SDS011;64303;53.118;9.044;2023-08-07T05:23:13;4.75;;;4.15;;
75689;SDS011;64303;53.118;9.044;2023-08-07T05:25:40;5.78;;;3.45;;
75689;SDS011;64303;53.118;9.044;2023-08-07T05:28:06;5.70;;;3.75;;
75689;SDS011;64303;53.118;9.044;2023-08-07T05:30:33;5.95;;;4.70;;
75689;SDS011;64303;53.118;9.044;2023-08-07T05:33:00;4.35;;;3.53;;
75689;SDS011;64303;53.118;9.044;2023-08-07T05:35:26;3.30;;;2.10;;
75689;SDS011;64303;53.118;9.044;2023-08-07T05:37:54;7.70;;;3.05;;
75689;SDS011;64303;53.118;9.044;2023-08-07T05:42:47;4.65;;;2.92;;
75689;SDS011;64303;53.118;9.044;2023-08-07T05:45:14;4.55;;;3.80;;
75689;SDS011;64303;53.118;9.044;2023-08-07T05:47:41;3.13;;;2.17;;
75689;SDS011;64303;53.118;9.044;2023-08-07T05:50:08;5.88;;;4.57;;
75689;SDS011;64303;53.118;9.044;2023-08-07T05:52:35;4.55;;;2.17;;
75689;SDS011;64303;53.118;9.044;2023-08-07T05:55:03;4.07;;;2.95;;
75689;SDS011;64303;53.118;9.044;2023-08-07T05:57:31;3.60;;;2.35;;
75689;SDS011;64303;53.118;9.044;2023-08-07T05:59:58;4.18;;;2.22;;
75689;SDS011;64303;53.118;9.044;2023-08-07T06:02:25;4.78;;;2.70;;
75689;SDS011;64303;53.118;9.044;2023-08-07T06:04:52;5.97;;;5.47;;
75689;SDS011;64303;53.118;9.044;2023-08-07T06:09:46;2.88;;;1.65;;
75689;SDS011;64303;53.118;9.044;2023-08-07T06:12:14;3.63;;;2.60;;
75689;SDS011;64303;53.118;9.044;2023-08-07T06:17:07;4.45;;;4.13;;
75689;SDS011;64303;53.118;9.044;2023-08-07T06:19:33;4.65;;;2.35;;
75689;SDS011;64303;53.118;9.044;2023-08-07T06:22:00;4.40;;;3.15;;
75689;SDS011;64303;53.118;9.044;2023-08-07T06:24:27;5.18;;;2.80;;
75689;SDS011;64303;53.118;9.044;2023-08-07T06:26:54;4.38;;;2.58;;
75689;SDS011;64303;53.118;9.044;2023-08-07T06:29:23;3.08;;;2.78;;
75689;SDS011;64303;53.118;9.044;2023-08-07T06:31:49;3.75;;;3.42;;
75689;SDS011;64303;53.118;9.044;2023-08-07T06:34:16;4.55;;;3.15;;
75689;SDS011;64303;53.118;9.044;2023-08-07T06:36:43;5.57;;;4.53;;
75689;SDS011;64303;53.118;9.044;2023-08-07T06:39:09;6.40;;;4.53;;
75689;SDS011;64303;53.118;9.044;2023-08-07T06:41:37;5.38;;;3.75;;
75689;SDS011;64303;53.118;9.044;2023-08-07T06:44:04;5.32;;;2.55;;
75689;SDS011;64303;53.118;9.044;2023-08-07T06:46:32;6.18;;;2.85;;
75689;SDS011;64303;53.118;9.044;2023-08-07T06:48:58;4.60;;;4.20;;
75689;SDS011;64303;53.118;9.044;2023-08-07T06:51:25;6.40;;;1.38;;
75689;SDS011;64303;53.118;9.044;2023-08-07T06:53:51;5.32;;;1.92;;
75689;SDS011;64303;53.118;9.044;2023-08-07T06:56:18;2.88;;;1.80;;
75689;SDS011;64303;53.118;9.044;2023-08-07T06:58:45;6.60;;;3.75;;
75689;SDS011;64303;53.118;9.044;2023-08-07T07:01:12;3.00;;;2.58;;
75689;SDS011;64303;53.118;9.044;2023-08-07T07:03:40;4.15;;;2.00;;
75689;SDS011;64303;53.118;9.044;2023-08-07T07:06:07;8.20;;;2.15;;
75689;SDS011;64303;53.118;9.044;2023-08-07T07:08:33;3.92;;;3.10;;
75689;SDS011;64303;53.118;9.044;2023-08-07T07:11:00;6.30;;;5.22;;
75689;SDS011;64303;53.118;9.044;2023-08-07T07:13:26;7.40;;;4.30;;
75689;SDS011;64303;53.118;9.044;2023-08-07T07:15:54;7.00;;;4.60;;
75689;SDS011;64303;53.118;9.044;2023-08-07T07:18:20;10.70;;;5.13;;
75689;SDS011;64303;53.118;9.044;2023-08-07T07:20:49;5.57;;;2.28;;
75689;SDS011;64303;53.118;9.044;2023-08-07T07:23:22;7.70;;;2.22;;
75689;SDS011;64303;53.118;9.044;2023-08-07T07:25:49;4.95;;;2.60;;
75689;SDS011;64303;53.118;9.044;2023-08-07T07:28:15;6.03;;;2.30;;
75689;SDS011;64303;53.118;9.044;2023-08-07T07:30:42;6.60;;;3.35;;
75689;SDS011;64303;53.118;9.044;2023-08-07T07:33:08;7.03;;;2.90;;
75689;SDS011;64303;53.118;9.044;2023-08-07T07:35:37;6.07;;;2.88;;
75689;SDS011;64303;53.118;9.044;2023-08-07T07:38:05;7.60;;;4.13;;
75689;SDS011;64303;53.118;9.044;2023-08-07T07:40:33;6.47;;;3.22;;
75689;SDS011;64303;53.118;9.044;2023-08-07T07:43:00;6.25;;;5.30;;
75689;SDS011;64303;53.118;9.044;2023-08-07T07:45:27;6.90;;;3.70;;
75689;SDS011;64303;53.118;9.044;2023-08-07T07:47:53;9.80;;;6.45;;
75689;SDS011;64303;53.118;9.044;2023-08-07T07:50:20;9.00;;;2.47;;
75689;SDS011;64303;53.118;9.044;2023-08-07T07:52:47;9.38;;;2.80;;
75689;SDS011;64303;53.118;9.044;2023-08-07T07:55:15;7.07;;;2.97;;
75689;SDS011;64303;53.118;9.044;2023-08-07T07:57:42;7.15;;;4.43;;
75689;SDS011;64303;53.118;9.044;2023-08-07T08:00:09;10.68;;;4.68;;
75689;SDS011;64303;53.118;9.044;2023-08-07T08:02:39;13.40;;;4.15;;
75689;SDS011;64303;53.118;9.044;2023-08-07T08:05:06;10.38;;;3.67;;
75689;SDS011;64303;53.118;9.044;2023-08-07T08:07:34;5.30;;;3.03;;
75689;SDS011;64303;53.118;9.044;2023-08-07T08:10:01;8.77;;;2.97;;
75689;SDS011;64303;53.118;9.044;2023-08-07T08:12:31;11.00;;;3.20;;
75689;SDS011;64303;53.118;9.044;2023-08-07T08:14:57;6.60;;;3.85;;
75689;SDS011;64303;53.118;9.044;2023-08-07T08:17:24;7.57;;;3.40;;
75689;SDS011;64303;53.118;9.044;2023-08-07T08:19:51;6.72;;;4.13;;
75689;SDS011;64303;53.118;9.044;2023-08-07T08:22:17;9.55;;;3.30;;
75689;SDS011;64303;53.118;9.044;2023-08-07T08:24:44;8.80;;;3.25;;
75689;SDS011;64303;53.118;9.044;2023-08-07T08:27:12;8.20;;;3.30;;
75689;SDS011;64303;53.118;9.044;2023-08-07T08:29:40;6.97;;;4.88;;
75689;SDS011;64303;53.118;9.044;2023-08-07T08:32:07;11.40;;;3.00;;
75689;SDS011;64303;53.118;9.044;2023-08-07T08:34:34;8.95;;;4.75;;
75689;SDS011;64303;53.118;9.044;2023-08-07T08:37:01;9.43;;;4.82;;
75689;SDS011;64303;53.118;9.044;2023-08-07T08:39:31;7.07;;;2.35;;
75689;SDS011;64303;53.118;9.044;2023-08-07T08:41:57;7.00;;;3.55;;
75689;SDS011;64303;53.118;9.044;2023-08-07T08:44:25;5.38;;;4.07;;
75689;SDS011;64303;53.118;9.044;2023-08-07T08:46:53;8.75;;;3.33;;
75689;SDS011;64303;53.118;9.044;2023-08-07T08:49:23;11.18;;;5.60;;
75689;SDS011;64303;53.118;9.044;2023-08-07T08:51:54;10.80;;;2.85;;
75689;SDS011;64303;53.118;9.044;2023-08-07T08:54:21;6.47;;;4.00;;
75689;SDS011;64303;53.118;9.044;2023-08-07T08:56:48;8.77;;;1.90;;
75689;SDS011;64303;53.118;9.044;2023-08-07T08:59:15;7.75;;;2.95;;
75689;SDS011;64303;53.118;9.044;2023-08-07T09:01:43;7.75;;;3.13;;
75689;SDS011;64303;53.118;9.044;2023-08-07T09:04:11;5.40;;;2.47;;
75689;SDS011;64303;53.118;9.044;2023-08-07T09:06:38;7.20;;;2.88;;
75689;SDS011;64303;53.118;9.044;2023-08-07T09:09:05;5.45;;;3.80;;
75689;SDS011;64303;53.118;9.044;2023-08-07T09:14:00;6.63;;;2.92;;
75689;SDS011;64303;53.118;9.044;2023-08-07T09:16:28;8.15;;;3.08;;
75689;SDS011;64303;53.118;9.044;2023-08-07T09:18:56;4.63;;;2.55;;
75689;SDS011;64303;53.118;9.044;2023-08-07T09:21:24;9.40;;;4.10;;
75689;SDS011;64303;53.118;9.044;2023-08-07T09:23:51;7.88;;;5.07;;
75689;SDS011;64303;53.118;9.044;2023-08-07T09:26:21;8.57;;;3.40;;
75689;SDS011;64303;53.118;9.044;2023-08-07T09:28:48;7.68;;;3.17;;
75689;SDS011;64303;53.118;9.044;2023-08-07T09:31:17;6.30;;;3.85;;
75689;SDS011;64303;53.118;9.044;2023-08-07T09:33:46;6.57;;;2.97;;
75689;SDS011;64303;53.118;9.044;2023-08-07T09:36:12;6.88;;;5.85;;
75689;SDS011;64303;53.118;9.044;2023-08-07T09:38:41;7.38;;;5.10;;
75689;SDS011;64303;53.118;9.044;2023-08-07T09:41:07;7.32;;;3.15;;
75689;SDS011;64303;53.118;9.044;2023-08-07T09:43:34;6.55;;;3.72;;
75689;SDS011;64303;53.118;9.044;2023-08-07T09:46:02;6.95;;;5.70;;
75689;SDS011;64303;53.118;9.044;2023-08-07T09:48:29;7.38;;;5.35;;
75689;SDS011;64303;53.118;9.044;2023-08-07T09:51:00;4.93;;;3.00;;
75689;SDS011;64303;53.118;9.044;2023-08-07T09:53:29;5.72;;;2.67;;
75689;SDS011;64303;53.118;9.044;2023-08-07T09:55:57;5.68;;;3.40;;
75689;SDS011;64303;53.118;9.044;2023-08-07T09:58:24;6.70;;;3.08;;
75689;SDS011;64303;53.118;9.044;2023-08-07T10:00:51;10.95;;;5.63;;
75689;SDS011;64303;53.118;9.044;2023-08-07T10:03:21;7.72;;;5.30;;
75689;SDS011;64303;53.118;9.044;2023-08-07T10:05:49;6.78;;;1.92;;
75689;SDS011;64303;53.118;9.044;2023-08-07T10:08:16;6.70;;;3.35;;
75689;SDS011;64303;53.118;9.044;2023-08-07T10:10:44;7.43;;;2.58;;
75689;SDS011;64303;53.118;9.044;2023-08-07T10:13:14;9.75;;;3.40;;
75689;SDS011;64303;53.118;9.044;2023-08-07T10:15:40;5.03;;;2.13;;
75689;SDS011;64303;53.118;9.044;2023-08-07T10:18:08;5.70;;;4.30;;
75689;SDS011;64303;53.118;9.044;2023-08-07T10:20:34;7.05;;;2.47;;
75689;SDS011;64303;53.118;9.044;2023-08-07T10:25:30;4.40;;;1.73;;
75689;SDS011;64303;53.118;9.044;2023-08-07T10:27:57;4.10;;;2.55;;
75689;SDS011;64303;53.118;9.044;2023-08-07T10:30:26;6.72;;;3.65;;
75689;SDS011;64303;53.118;9.044;2023-08-07T10:32:54;7.78;;;2.67;;
75689;SDS011;64303;53.118;9.044;2023-08-07T10:35:23;4.15;;;2.78;;
75689;SDS011;64303;53.118;9.044;2023-08-07T10:37:50;5.03;;;2.95;;
75689;SDS011;64303;53.118;9.044;2023-08-07T10:40:17;6.95;;;2.88;;
75689;SDS011;64303;53.118;9.044;2023-08-07T10:42:56;4.80;;;2.17;;
75689;SDS011;64303;53.118;9.044;2023-08-07T10:45:24;9.00;;;2.50;;
75689;SDS011;64303;53.118;9.044;2023-08-07T10:48:02;5.07;;;2.17;;
75689;SDS011;64303;53.118;9.044;2023-08-07T10:50:29;8.95;;;3.03;;
75689;SDS011;64303;53.118;9.044;2023-08-07T10:52:59;4.88;;;1.98;;
75689;SDS011;64303;53.118;9.044;2023-08-07T10:55:26;6.25;;;4.10;;
75689;SDS011;64303;53.118;9.044;2023-08-07T10:57:53;5.47;;;2.72;;
75689;SDS011;64303;53.118;9.044;2023-08-07T11:00:21;3.95;;;2.42;;
75689;SDS011;64303;53.118;9.044;2023-08-07T11:02:52;6.25;;;3.35;;
75689;SDS011;64303;53.118;9.044;2023-08-07T11:05:20;6.75;;;2.25;;
75689;SDS011;64303;53.118;9.044;2023-08-07T11:07:47;4.68;;;2.75;;
75689;SDS011;64303;53.118;9.044;2023-08-07T11:10:14;8.30;;;4.38;;
75689;SDS011;64303;53.118;9.044;2023-08-07T11:12:43;7.55;;;3.25;;
75689;SDS011;64303;53.118;9.044;2023-08-07T11:15:11;7.07;;;4.90;;
75689;SDS011;64303;53.118;9.044;2023-08-07T11:17:40;6.68;;;4.13;;
75689;SDS011;64303;53.118;9.044;2023-08-07T11:20:07;9.57;;;3.58;;
75689;SDS011;64303;53.118;9.044;2023-08-07T11:22:39;6.00;;;2.97;;
75689;SDS011;64303;53.118;9.044;2023-08-07T11:25:06;5.78;;;3.28;;
75689;SDS011;64303;53.118;9.044;2023-08-07T11:27:37;6.82;;;2.50;;
75689;SDS011;64303;53.118;9.044;2023-08-07T11:30:04;5.60;;;3.05;;
75689;SDS011;64303;53.118;9.044;2023-08-07T11:32:31;10.32;;;2.70;;
75689;SDS011;64303;53.118;9.044;2023-08-07T11:34:58;5.45;;;2.92;;
75689;SDS011;64303;53.118;9.044;2023-08-07T11:37:25;7.95;;;3.92;;
75689;SDS011;64303;53.118;9.044;2023-08-07T11:39:53;13.20;;;3.63;;
75689;SDS011;64303;53.118;9.044;2023-08-07T11:42:27;11.27;;;3.13;;
75689;SDS011;64303;53.118;9.044;2023-08-07T11:44:53;8.48;;;5.38;;
75689;SDS011;64303;53.118;9.044;2023-08-07T11:47:20;5.20;;;2.90;;
75689;SDS011;64303;53.118;9.044;2023-08-07T11:49:47;5.97;;;2.45;;
75689;SDS011;64303;53.118;9.044;2023-08-07T11:52:14;5.47;;;2.88;;
75689;SDS011;64303;53.118;9.044;2023-08-07T11:54:42;5.53;;;1.60;;
75689;SDS011;64303;53.118;9.044;2023-08-07T11:57:16;6.47;;;2.80;;
75689;SDS011;64303;53.118;9.044;2023-08-07T11:59:46;5.60;;;2.83;;
75689;SDS011;64303;53.118;9.044;2023-08-07T12:02:14;4.85;;;2.63;;
75689;SDS011;64303;53.118;9.044;2023-08-07T12:04:41;9.35;;;2.35;;
75689;SDS011;64303;53.118;9.044;2023-08-07T12:07:08;4.22;;;2.25;;
75689;SDS011;64303;53.118;9.044;2023-08-07T12:09:36;6.10;;;3.72;;
75689;SDS011;64303;53.118;9.044;2023-08-07T12:12:03;3.25;;;2.45;;
75689;SDS011;64303;53.118;9.044;2023-08-07T12:14:31;4.32;;;1.85;;
75689;SDS011;64303;53.118;9.044;2023-08-07T12:17:00;5.47;;;2.58;;
75689;SDS011;64303;53.118;9.044;2023-08-07T12:19:35;6.45;;;1.90;;
75689;SDS011;64303;53.118;9.044;2023-08-07T12:22:02;5.18;;;3.70;;
75689;SDS011;64303;53.118;9.044;2023-08-07T12:24:29;7.15;;;4.97;;
75689;SDS011;64303;53.118;9.044;2023-08-07T12:26:56;4.25;;;1.98;;
75689;SDS011;64303;53.118;9.044;2023-08-07T12:29:22;6.38;;;2.08;;
75689;SDS011;64303;53.118;9.044;2023-08-07T12:31:55;4.78;;;4.07;;
75689;SDS011;64303;53.118;9.044;2023-08-07T12:34:24;6.53;;;3.30;;
75689;SDS011;64303;53.118;9.044;2023-08-07T12:36:50;3.45;;;2.08;;
75689;SDS011;64303;53.118;9.044;2023-08-07T12:39:17;7.07;;;2.83;;
75689;SDS011;64303;53.118;9.044;2023-08-07T12:41:44;4.90;;;2.25;;
75689;SDS011;64303;53.118;9.044;2023-08-07T12:44:11;4.22;;;2.60;;
75689;SDS011;64303;53.118;9.044;2023-08-07T12:46:38;5.80;;;2.58;;
75689;SDS011;64303;53.118;9.044;2023-08-07T12:49:08;4.03;;;2.45;;
75689;SDS011;64303;53.118;9.044;2023-08-07T12:51:35;4.70;;;1.63;;
75689;SDS011;64303;53.118;9.044;2023-08-07T12:54:01;4.10;;;2.08;;
75689;SDS011;64303;53.118;9.044;2023-08-07T12:56:28;5.25;;;2.95;;
75689;SDS011;64303;53.118;9.044;2023-08-07T12:58:55;5.57;;;2.13;;
75689;SDS011;64303;53.118;9.044;2023-08-07T13:01:22;6.25;;;2.95;;
75689;SDS011;64303;53.118;9.044;2023-08-07T13:03:48;3.72;;;2.90;;
75689;SDS011;64303;53.118;9.044;2023-08-07T13:06:16;6.53;;;2.45;;
75689;SDS011;64303;53.118;9.044;2023-08-07T13:08:43;5.13;;;2.30;;
75689;SDS011;64303;53.118;9.044;2023-08-07T13:11:11;4.50;;;1.95;;
75689;SDS011;64303;53.118;9.044;2023-08-07T13:13:38;5.15;;;3.08;;
75689;SDS011;64303;53.118;9.044;2023-08-07T13:16:04;14.50;;;3.92;;
75689;SDS011;64303;53.118;9.044;2023-08-07T13:18:31;8.95;;;2.80;;
75689;SDS011;64303;53.118;9.044;2023-08-07T13:20:58;8.23;;;3.95;;
75689;SDS011;64303;53.118;9.044;2023-08-07T13:23:26;5.97;;;3.72;;
75689;SDS011;64303;53.118;9.044;2023-08-07T13:25:52;8.25;;;3.33;;
75689;SDS011;64303;53.118;9.044;2023-08-07T13:28:19;6.60;;;4.60;;
75689;SDS011;64303;53.118;9.044;2023-08-07T13:30:46;8.93;;;4.55;;
75689;SDS011;64303;53.118;9.044;2023-08-07T13:33:12;9.00;;;4.28;;
75689;SDS011;64303;53.118;9.044;2023-08-07T13:35:39;8.38;;;3.97;;
75689;SDS011;64303;53.118;9.044;2023-08-07T13:38:06;8.43;;;4.20;;
75689;SDS011;64303;53.118;9.044;2023-08-07T13:40:34;5.95;;;3.28;;
75689;SDS011;64303;53.118;9.044;2023-08-07T13:43:01;3.05;;;2.33;;
75689;SDS011;64303;53.118;9.044;2023-08-07T13:45:33;7.15;;;3.35;;
75689;SDS011;64303;53.118;9.044;2023-08-07T13:47:59;5.25;;;2.40;;
75689;SDS011;64303;53.118;9.044;2023-08-07T13:50:26;7.90;;;2.70;;
75689;SDS011;64303;53.118;9.044;2023-08-07T13:52:52;6.65;;;2.33;;
75689;SDS011;64303;53.118;9.044;2023-08-07T13:55:19;9.75;;;2.97;;
75689;SDS011;64303;53.118;9.044;2023-08-07T13:57:47;5.55;;;2.83;;
75689;SDS011;64303;53.118;9.044;2023-08-07T14:00:14;5.10;;;2.05;;
75689;SDS011;64303;53.118;9.044;2023-08-07T14:02:41;7.25;;;2.08;;
75689;SDS011;64303;53.118;9.044;2023-08-07T14:05:08;6.07;;;3.35;;
75689;SDS011;64303;53.118;9.044;2023-08-07T14:07:34;5.38;;;2.50;;
75689;SDS011;64303;53.118;9.044;2023-08-07T14:10:01;5.38;;;2.22;;
75689;SDS011;64303;53.118;9.044;2023-08-07T14:12:28;6.15;;;3.00;;
75689;SDS011;64303;53.118;9.044;2023-08-07T14:14:56;5.50;;;2.28;;
75689;SDS011;64303;53.118;9.044;2023-08-07T14:17:22;9.20;;;4.03;;
75689;SDS011;64303;53.118;9.044;2023-08-07T14:19:49;7.85;;;5.85;;
75689;SDS011;64303;53.118;9.044;2023-08-07T14:22:16;6.68;;;3.88;;
75689;SDS011;64303;53.118;9.044;2023-08-07T14:24:42;5.85;;;2.72;;
75689;SDS011;64303;53.118;9.044;2023-08-07T14:27:09;5.65;;;3.67;;
75689;SDS011;64303;53.118;9.044;2023-08-07T14:29:36;4.95;;;2.97;;
75689;SDS011;64303;53.118;9.044;2023-08-07T14:32:04;7.88;;;2.75;;
75689;SDS011;64303;53.118;9.044;2023-08-07T14:34:31;6.00;;;2.55;;
75689;SDS011;64303;53.118;9.044;2023-08-07T14:36:58;6.65;;;2.92;;
75689;SDS011;64303;53.118;9.044;2023-08-07T14:39:25;6.40;;;2.60;;
75689;SDS011;64303;53.118;9.044;2023-08-07T14:41:51;6.20;;;2.88;;
75689;SDS011;64303;53.118;9.044;2023-08-07T14:44:20;6.57;;;2.88;;
75689;SDS011;64303;53.118;9.044;2023-08-07T14:46:46;3.83;;;2.63;;
75689;SDS011;64303;53.118;9.044;2023-08-07T14:49:15;5.55;;;4.50;;
75689;SDS011;64303;53.118;9.044;2023-08-07T14:51:41;3.05;;;1.95;;
75689;SDS011;64303;53.118;9.044;2023-08-07T14:54:08;4.43;;;3.33;;
75689;SDS011;64303;53.118;9.044;2023-08-07T14:56:34;6.05;;;3.17;;
75689;SDS011;64303;53.118;9.044;2023-08-07T14:59:01;4.85;;;2.53;;
75689;SDS011;64303;53.118;9.044;2023-08-07T15:01:28;5.60;;;3.97;;
75689;SDS011;64303;53.118;9.044;2023-08-07T15:03:54;6.95;;;2.70;;
75689;SDS011;64303;53.118;9.044;2023-08-07T15:06:22;3.83;;;2.40;;
75689;SDS011;64303;53.118;9.044;2023-08-07T15:08:49;8.18;;;3.47;;